createdAt,value
2022-12-01T00:00:29.701Z,41.25
2022-12-01T00:03:33.638Z,43.00
2022-12-01T00:06:37.499Z,42.50
2022-12-01T00:09:59.156Z,45.33
2022-12-01T00:13:05.217Z,41.57
2022-12-01T00:16:16.828Z,41.75
2022-12-01T00:19:20.280Z,43.25
2022-12-01T00:22:23.566Z,47.70
2022-12-01T00:25:28.818Z,48.65
2022-12-01T00:28:32.096Z,44.47
2022-12-01T00:31:35.440Z,45.65
2022-12-01T00:34:38.712Z,42.73
2022-12-01T00:37:42.381Z,46.13
2022-12-01T00:40:45.546Z,42.22
2022-12-01T00:43:48.973Z,39.83
2022-12-01T00:46:52.270Z,47.10
2022-12-01T00:49:55.616Z,43.28
2022-12-01T00:52:58.840Z,42.47
2022-12-01T00:56:02.092Z,38.97
2022-12-01T00:59:05.612Z,40.78
2022-12-01T01:02:09.325Z,40.88
2022-12-01T01:05:12.716Z,41.07
2022-12-01T01:08:16.014Z,41.33
2022-12-01T01:11:19.240Z,41.92
2022-12-01T01:14:22.773Z,43.43
2022-12-01T01:17:26.719Z,38.03
2022-12-01T01:20:30.394Z,45.05
2022-12-01T01:23:33.841Z,40.33
2022-12-01T01:26:37.859Z,42.47
2022-12-01T01:29:42.582Z,41.55
2022-12-01T01:32:45.799Z,42.60
2022-12-01T01:35:49.094Z,38.87
2022-12-01T01:38:54.605Z,38.22
2022-12-01T01:41:57.747Z,42.65
2022-12-01T01:45:00.971Z,37.43
2022-12-01T01:48:04.534Z,42.63
2022-12-01T01:51:09.025Z,38.55
2022-12-01T01:54:19.289Z,38.75
2022-12-01T01:57:28.749Z,36.75
2022-12-01T02:00:38.197Z,36.63
2022-12-01T02:03:42.643Z,35.17
2022-12-01T02:06:46.124Z,32.97
2022-12-01T02:09:49.697Z,36.53
2022-12-01T02:13:17.969Z,39.50
2022-12-01T02:16:23.940Z,34.90
2022-12-01T02:19:54.920Z,37.53
2022-12-01T02:23:35.488Z,32.95
2022-12-01T02:27:01.202Z,34.28
2022-12-01T02:30:13.835Z,35.03
2022-12-01T02:33:19.959Z,32.85
2022-12-01T02:36:34.633Z,37.65
2022-12-01T02:39:54.413Z,35.65
2022-12-01T02:43:07.268Z,34.08
2022-12-01T02:46:24.119Z,33.45
2022-12-01T02:49:32.558Z,32.85
2022-12-01T02:52:36.004Z,33.70
2022-12-01T02:55:48.068Z,31.95
2022-12-01T02:58:51.868Z,33.17
2022-12-01T03:02:02.781Z,31.77
2022-12-01T03:05:26.289Z,32.58
2022-12-01T03:08:53.951Z,29.52
2022-12-01T03:12:24.235Z,31.95
2022-12-01T03:15:37.311Z,31.27
2022-12-01T03:18:47.953Z,32.58
2022-12-01T03:22:01.746Z,34.42
2022-12-01T03:25:06.034Z,30.10
2022-12-01T03:28:27.387Z,33.58
2022-12-01T03:31:37.781Z,28.60
2022-12-01T03:35:05.382Z,33.33
2022-12-01T03:38:27.239Z,32.63
2022-12-01T03:41:37.580Z,29.02
2022-12-01T03:44:56.584Z,32.75
2022-12-01T03:48:00.270Z,29.10
2022-12-01T03:51:24.377Z,31.30
2022-12-01T03:54:50.205Z,29.27
2022-12-01T03:58:02.752Z,31.20
2022-12-01T04:01:07.608Z,29.27
2022-12-01T04:04:12.770Z,31.65
2022-12-01T04:07:15.964Z,32.80
2022-12-01T04:10:19.381Z,31.50
2022-12-01T04:13:23.330Z,30.48
2022-12-01T04:16:31.320Z,27.17
2022-12-01T04:19:34.714Z,31.48
2022-12-01T04:22:38.522Z,30.67
2022-12-01T04:25:41.701Z,32.28
2022-12-01T04:28:44.913Z,26.90
2022-12-01T04:31:48.270Z,27.55
2022-12-01T04:34:51.441Z,29.83
2022-12-01T04:37:54.660Z,29.60
2022-12-01T04:40:58.123Z,29.48
2022-12-01T04:44:01.371Z,29.20
2022-12-01T04:47:05.906Z,28.20
2022-12-01T04:50:09.609Z,30.52
2022-12-01T04:53:12.765Z,26.85
2022-12-01T04:56:15.937Z,28.92
2022-12-01T04:59:19.756Z,27.90
2022-12-01T05:02:23.136Z,27.67
2022-12-01T05:05:26.531Z,27.45
2022-12-01T05:08:29.831Z,26.23
2022-12-01T05:11:33.736Z,28.55
2022-12-01T05:14:37.012Z,27.67
2022-12-01T05:17:40.349Z,27.27
2022-12-01T05:20:59.041Z,32.13
2022-12-01T05:24:02.326Z,28.25
2022-12-01T05:27:05.574Z,29.50
2022-12-01T05:30:09.463Z,26.33
2022-12-01T05:33:12.871Z,28.42
2022-12-01T05:36:16.103Z,30.40
2022-12-01T05:39:19.510Z,25.13
2022-12-01T05:42:22.777Z,26.77
2022-12-01T05:45:27.700Z,28.73
2022-12-01T05:48:31.067Z,31.90
2022-12-01T05:51:34.411Z,28.20
2022-12-01T05:54:37.570Z,28.67
2022-12-01T05:57:40.785Z,28.05
2022-12-01T06:00:46.205Z,27.43
2022-12-01T06:03:49.683Z,30.67
2022-12-01T06:06:52.993Z,27.88
2022-12-01T06:09:56.519Z,25.87
2022-12-01T06:13:04.683Z,26.23
2022-12-01T06:16:08.333Z,32.00
2022-12-01T06:19:11.535Z,24.73
2022-12-01T06:22:14.899Z,28.67
2022-12-01T06:25:18.324Z,33.70
2022-12-01T06:28:21.949Z,27.35
2022-12-01T06:31:25.245Z,28.53
2022-12-01T06:34:28.655Z,27.92
2022-12-01T06:37:32.042Z,25.27
2022-12-01T06:40:35.309Z,26.42
2022-12-01T06:43:38.907Z,25.05
2022-12-01T06:46:42.428Z,30.55
2022-12-01T06:49:45.852Z,26.45
2022-12-01T06:52:49.198Z,26.27
2022-12-01T06:56:00.264Z,26.80
2022-12-01T06:59:04.068Z,23.52
2022-12-01T07:02:12.293Z,26.37
2022-12-01T07:05:18.261Z,28.52
2022-12-01T07:08:21.598Z,31.10
2022-12-01T07:11:26.969Z,23.88
2022-12-01T07:14:31.716Z,27.73
2022-12-01T07:17:36.130Z,28.42
2022-12-01T07:20:39.752Z,27.63
2022-12-01T07:23:43.374Z,27.67
2022-12-01T07:26:48.699Z,30.27
2022-12-01T07:29:52.062Z,26.55
2022-12-01T07:32:55.406Z,30.20
2022-12-01T07:35:58.830Z,27.27
2022-12-01T07:39:07.651Z,31.77
2022-12-01T07:42:10.964Z,27.45
2022-12-01T07:45:14.435Z,27.58
2022-12-01T07:48:17.661Z,28.33
2022-12-01T07:51:22.134Z,32.50
2022-12-01T07:54:26.284Z,29.93
2022-12-01T07:57:29.518Z,29.45
2022-12-01T08:00:32.768Z,31.25
2022-12-01T08:03:36.709Z,31.60
2022-12-01T08:06:42.904Z,29.23
2022-12-01T08:09:46.537Z,31.67
2022-12-01T08:12:49.899Z,27.23
2022-12-01T08:15:53.424Z,27.63
2022-12-01T08:19:03.687Z,31.38
2022-12-01T08:22:09.801Z,29.25
2022-12-01T08:25:13.114Z,30.10
2022-12-01T08:28:20.099Z,26.50
2022-12-01T08:31:30.723Z,28.85
2022-12-01T08:34:38.366Z,30.80
2022-12-01T08:37:59.246Z,31.03
2022-12-01T08:41:04.762Z,31.23
2022-12-01T08:44:09.564Z,32.78
2022-12-01T08:47:17.333Z,31.80
2022-12-01T08:50:29.058Z,30.38
2022-12-01T08:53:40.207Z,29.52
2022-12-01T08:56:47.453Z,30.88
2022-12-01T08:59:51.546Z,31.25
2022-12-01T09:02:54.994Z,26.17
2022-12-01T09:06:07.202Z,28.70
2022-12-01T09:09:13.541Z,29.67
2022-12-01T09:12:17.112Z,29.52
2022-12-01T09:15:20.811Z,29.77
2022-12-01T09:18:33.814Z,29.50
2022-12-01T09:21:43.578Z,27.38
2022-12-01T09:24:50.360Z,31.70
2022-12-01T09:27:53.748Z,26.92
2022-12-01T09:30:57.440Z,27.90
2022-12-01T09:34:03.353Z,27.38
2022-12-01T09:37:07.875Z,32.13
2022-12-01T09:40:15.457Z,29.53
2022-12-01T09:43:36.561Z,32.35
2022-12-01T09:46:49.236Z,30.85
2022-12-01T09:50:04.934Z,28.25
2022-12-01T09:53:16.973Z,27.87
2022-12-01T09:56:32.235Z,28.65
2022-12-01T09:59:44.423Z,36.30
2022-12-01T10:02:47.647Z,27.30
2022-12-01T10:06:37.952Z,29.40
2022-12-01T10:09:57.204Z,32.97
2022-12-01T10:13:43.715Z,29.13
2022-12-01T10:17:11.363Z,30.83
2022-12-01T10:20:26.878Z,31.67
2022-12-01T10:23:40.544Z,29.33
2022-12-01T10:27:04.663Z,32.70
2022-12-01T10:30:19.726Z,28.10
2022-12-01T10:33:26.952Z,31.63
2022-12-01T10:36:32.777Z,29.42
2022-12-01T10:39:39.782Z,30.73
2022-12-01T10:42:44.159Z,30.53
2022-12-01T10:45:47.682Z,30.35
2022-12-01T10:48:59.936Z,29.73
2022-12-01T10:52:03.174Z,30.75
2022-12-01T10:55:28.210Z,33.47
2022-12-01T10:58:34.307Z,30.65
2022-12-01T11:01:37.770Z,30.73
2022-12-01T11:05:07.803Z,29.57
2022-12-01T11:08:23.791Z,27.25
2022-12-01T11:11:41.324Z,32.85
2022-12-01T11:14:51.216Z,30.95
2022-12-01T11:18:02.599Z,30.87
2022-12-01T11:21:26.003Z,31.65
2022-12-01T11:24:56.343Z,31.63
2022-12-01T11:28:01.960Z,31.60
2022-12-01T11:31:10.309Z,33.57
2022-12-01T11:34:38.075Z,33.42
2022-12-01T11:38:27.282Z,28.73
2022-12-01T11:41:29.414Z,30.33
2022-12-01T11:48:12.412Z,32.05
2022-12-01T11:51:21.423Z,30.00
2022-12-01T11:54:29.564Z,27.60
2022-12-01T11:57:34.601Z,28.17
2022-12-01T12:00:56.176Z,31.33
2022-12-01T12:04:22.337Z,27.88
2022-12-01T12:07:34.950Z,27.90
2022-12-01T12:11:11.942Z,29.50
2022-12-01T12:14:37.384Z,30.33
2022-12-01T12:18:15.926Z,32.10
2022-12-01T12:21:22.296Z,30.20
2022-12-01T12:24:44.114Z,31.65
2022-12-01T12:27:55.934Z,29.80
2022-12-01T12:31:08.089Z,28.83
2022-12-01T12:34:19.262Z,29.95
2022-12-01T12:37:44.014Z,35.28
2022-12-01T12:40:57.735Z,29.73
2022-12-01T12:44:21.697Z,32.50
2022-12-01T12:47:45.469Z,28.77
2022-12-01T12:51:15.054Z,37.28
2022-12-01T12:54:43.393Z,35.17
2022-12-01T12:58:12.728Z,37.93
2022-12-01T13:01:28.290Z,32.28
2022-12-01T13:04:46.246Z,33.63
2022-12-01T13:08:01.584Z,35.60
2022-12-01T13:11:08.252Z,35.20
2022-12-01T13:14:19.374Z,34.10
2022-12-01T13:17:39.173Z,38.08
2022-12-01T13:20:43.321Z,34.28
2022-12-01T13:23:48.553Z,34.08
2022-12-01T13:27:07.835Z,34.92
2022-12-01T13:30:23.481Z,35.50
2022-12-01T13:33:27.021Z,34.07
2022-12-01T13:36:46.832Z,37.83
2022-12-01T13:39:55.418Z,36.17
2022-12-01T13:43:10.406Z,36.50
2022-12-01T13:46:45.135Z,36.67
2022-12-01T13:49:50.449Z,35.75
2022-12-01T13:53:12.635Z,33.15
2022-12-01T13:56:18.547Z,33.22
2022-12-01T13:59:43.334Z,36.03
2022-12-01T14:02:46.716Z,34.17
2022-12-01T14:05:57.286Z,38.47
2022-12-01T14:09:15.609Z,35.90
2022-12-01T14:12:25.382Z,33.70
2022-12-01T14:15:34.470Z,38.80
2022-12-01T14:18:44.016Z,35.15
2022-12-01T14:21:49.767Z,39.55
2022-12-01T14:24:53.568Z,40.20
2022-12-01T14:28:04.879Z,36.93
2022-12-01T14:31:08.372Z,37.60
2022-12-01T14:34:19.086Z,38.03
2022-12-01T14:37:28.966Z,37.05
2022-12-01T14:40:33.249Z,38.15
2022-12-01T14:43:57.103Z,36.35
2022-12-01T14:47:10.870Z,36.60
2022-12-01T14:50:30.022Z,36.13
2022-12-01T14:53:36.907Z,38.72
2022-12-01T14:56:41.887Z,36.42
2022-12-01T14:59:45.311Z,38.90
2022-12-01T15:02:55.205Z,36.70
2022-12-01T15:05:58.382Z,41.10
2022-12-01T15:09:36.974Z,38.50
2022-12-01T15:12:40.245Z,40.28
2022-12-01T15:15:58.522Z,41.77
2022-12-01T15:19:01.789Z,38.17
2022-12-01T15:22:12.208Z,43.35
2022-12-01T15:25:16.103Z,41.67
2022-12-01T15:28:22.450Z,43.20
2022-12-01T15:31:25.826Z,40.58
2022-12-01T15:34:39.954Z,40.80
2022-12-01T15:37:45.399Z,40.92
2022-12-01T15:44:32.304Z,42.65
2022-12-01T15:47:39.766Z,39.67
2022-12-01T15:50:47.153Z,40.10
2022-12-01T15:53:59.170Z,52.50
2022-12-01T15:57:03.570Z,44.83
2022-12-01T16:00:07.965Z,40.28
2022-12-01T16:03:15.646Z,38.88
2022-12-01T16:06:19.603Z,40.47
2022-12-01T16:09:31.581Z,42.40
2022-12-01T16:12:37.142Z,45.25
2022-12-01T16:15:44.275Z,40.67
2022-12-01T16:18:59.825Z,45.27
2022-12-01T16:22:22.639Z,48.97
2022-12-01T16:25:42.304Z,46.13
2022-12-01T16:28:45.489Z,44.13
2022-12-01T16:32:18.923Z,47.20
2022-12-01T16:35:27.552Z,48.97
2022-12-01T16:38:31.243Z,48.97
2022-12-01T16:41:38.772Z,47.67
2022-12-01T16:44:44.695Z,46.30
2022-12-01T16:47:49.422Z,47.92
2022-12-01T16:50:53.341Z,46.08
2022-12-01T16:54:05.384Z,49.03
2022-12-01T16:57:08.960Z,51.47
2022-12-01T17:00:15.561Z,56.65
2022-12-01T17:03:21.374Z,55.63
2022-12-01T17:06:24.918Z,52.72
2022-12-01T17:09:28.886Z,60.20
2022-12-01T17:12:32.107Z,57.45
2022-12-01T17:15:35.506Z,58.03
2022-12-01T17:18:39.852Z,65.65
2022-12-01T17:21:43.372Z,66.15
2022-12-01T17:24:46.547Z,70.20
2022-12-01T17:27:49.989Z,70.30
2022-12-01T17:30:59.335Z,74.72
2022-12-01T17:34:02.707Z,62.60
2022-12-01T17:37:06.115Z,66.22
2022-12-01T17:40:13.904Z,66.68
2022-12-01T17:43:16.996Z,80.72
2022-12-01T17:46:20.244Z,83.07
2022-12-01T17:49:23.623Z,86.88
2022-12-01T17:52:28.685Z,88.93
2022-12-01T17:55:32.132Z,84.47
2022-12-01T17:58:36.471Z,79.17
2022-12-01T18:01:41.210Z,80.20
2022-12-01T18:04:44.653Z,81.90
2022-12-01T18:07:48.073Z,85.93
2022-12-01T18:10:51.611Z,71.83
2022-12-01T18:13:54.992Z,74.13
2022-12-01T18:16:58.236Z,70.10
2022-12-01T18:20:01.733Z,66.82
2022-12-01T18:23:04.960Z,73.33
2022-12-01T18:26:16.055Z,77.05
2022-12-01T18:29:28.580Z,77.05
2022-12-01T18:32:32.632Z,76.10
2022-12-01T18:35:40.724Z,66.07
2022-12-01T18:38:47.284Z,66.97
2022-12-01T18:41:50.871Z,65.93
2022-12-01T18:44:54.311Z,57.55
2022-12-01T18:47:57.746Z,58.95
2022-12-01T18:51:08.264Z,61.13
2022-12-01T18:54:14.658Z,55.08
2022-12-01T18:57:19.100Z,59.33
2022-12-01T19:00:23.106Z,58.97
2022-12-01T19:03:31.565Z,55.13
2022-12-01T19:06:37.482Z,54.47
2022-12-01T19:09:41.065Z,54.87
2022-12-01T19:12:44.499Z,59.28
2022-12-01T19:15:47.991Z,60.40
2022-12-01T19:18:51.747Z,60.35
2022-12-01T19:21:55.292Z,61.55
2022-12-01T19:24:58.744Z,62.22
2022-12-01T19:28:02.107Z,58.65
2022-12-01T19:31:13.448Z,57.17
2022-12-01T19:34:17.033Z,57.35
2022-12-01T19:37:20.533Z,60.17
2022-12-01T19:40:24.028Z,54.60
2022-12-01T19:43:27.752Z,56.63
2022-12-01T19:46:31.307Z,58.80
2022-12-01T19:49:37.081Z,57.88
2022-12-01T19:52:41.535Z,55.80
2022-12-01T19:55:46.689Z,59.13
2022-12-01T19:58:50.830Z,59.28
2022-12-01T20:01:54.467Z,60.08
2022-12-01T20:04:58.044Z,59.97
2022-12-01T20:08:02.738Z,59.70
2022-12-01T20:11:07.187Z,56.30
2022-12-01T20:14:11.721Z,55.85
2022-12-01T20:17:16.153Z,59.83
2022-12-01T20:20:19.973Z,64.88
2022-12-01T20:23:23.441Z,60.42
2022-12-01T20:26:32.642Z,57.67
2022-12-01T20:29:36.253Z,58.45
2022-12-01T20:32:40.743Z,60.85
2022-12-01T20:35:48.657Z,54.92
2022-12-01T20:38:52.728Z,59.80
2022-12-01T20:41:55.920Z,63.85
2022-12-01T20:44:59.528Z,57.80
2022-12-01T20:48:03.506Z,55.80
2022-12-01T20:51:08.258Z,58.63
2022-12-01T20:54:30.294Z,59.63
2022-12-01T20:57:34.036Z,59.13
2022-12-01T21:00:46.037Z,53.17
2022-12-01T21:03:51.003Z,49.92
2022-12-01T21:06:58.304Z,49.92
2022-12-01T21:10:03.064Z,49.83
2022-12-01T21:13:39.499Z,49.90
2022-12-01T21:16:48.234Z,51.80
2022-12-01T21:20:09.457Z,49.30
2022-12-01T21:23:17.195Z,48.15
2022-12-01T21:26:20.392Z,47.47
2022-12-01T21:29:26.265Z,45.80
2022-12-01T21:32:34.645Z,51.63
2022-12-01T21:35:37.889Z,44.92
2022-12-01T21:38:45.592Z,49.00
2022-12-01T21:41:50.600Z,47.35
2022-12-01T21:44:55.479Z,43.90
2022-12-01T21:48:01.498Z,44.92
2022-12-01T21:51:20.124Z,45.03
2022-12-01T21:54:23.933Z,43.35
2022-12-01T21:57:43.413Z,44.15
2022-12-01T22:00:46.758Z,44.33
2022-12-01T22:03:50.466Z,44.95
2022-12-01T22:06:56.306Z,43.30
2022-12-01T22:10:00.230Z,45.03
2022-12-01T22:13:09.851Z,43.63
2022-12-01T22:16:25.456Z,45.28
2022-12-01T22:19:40.106Z,43.28
2022-12-01T22:22:43.596Z,43.40
2022-12-01T22:25:48.090Z,41.65
2022-12-01T22:28:55.923Z,46.92
2022-12-01T22:32:10.969Z,43.40
2022-12-01T22:35:23.143Z,44.40
2022-12-01T22:38:36.399Z,43.65
2022-12-01T22:41:39.610Z,47.08
2022-12-01T22:44:45.069Z,41.43
2022-12-01T22:47:48.277Z,43.35
2022-12-01T22:50:52.115Z,42.70
2022-12-01T22:54:14.754Z,43.08
2022-12-01T22:57:35.125Z,46.80
2022-12-01T23:00:39.795Z,47.67
2022-12-01T23:03:43.037Z,44.33
2022-12-01T23:06:54.706Z,45.80
2022-12-01T23:10:06.981Z,47.43
2022-12-01T23:13:30.366Z,44.25
2022-12-01T23:16:33.697Z,45.33
2022-12-01T23:19:36.989Z,42.22
2022-12-01T23:22:40.410Z,44.50
2022-12-01T23:25:44.770Z,44.80
2022-12-01T23:28:48.073Z,45.05
2022-12-01T23:31:51.805Z,42.83
2022-12-01T23:34:59.981Z,42.17
2022-12-01T23:38:03.721Z,42.35
2022-12-01T23:41:31.944Z,42.55
2022-12-01T23:44:42.367Z,44.47
2022-12-01T23:47:45.789Z,44.73
2022-12-01T23:50:52.956Z,42.17
2022-12-01T23:53:57.710Z,41.90
2022-12-01T23:57:12.757Z,42.08
